Cree Lake, Indiana
Current Conditions -  °F | °C
As of 12:15 PM on Thursday 27 Nov 2014 (Local Time) from KGWB Reporting Station
Light Snow Light Snow  
Wind Chill: 24°   Ceiling: 2400
Heat Index: 32°   Visibility: 4mi
Dew Point: 27°   Wind: 9mph
Humidity: 80%   Direction: 260°W
Pressure: 30.22"   Gusts: NA
Location:  41.4608°N, 85.2531°W
Report Text: KGWB 271715Z AUTO 26008KT 4SM -SN SCT017 BKN024 OVC033 00/M03 A3022 RMK AO2
Loading
Personal Weather Stations






























Interactive Weather Map New forecast layout! Learn more

10-Day Weather Forecast

Advertisements
Track Severe Weather on mobile